Time;durP1;ratioP1;P1;durP2;ratioP2;P2;SDS_P1;SDS_P2;PMS_P1;PMS_P2;Temp;Humidity;BMP_temperature;BMP_pressure;BME280_temperature;BME280_humidity;BME280_pressure;Samples;Min_cycle;Max_cycle;Signal;HPM_P1;HPM_P2
2023/09/20 00:00:30;;;;;;;6.50;2.60;;;16.70;99.90;;;;;;4214250;28;20040;-84
2023/09/20 00:02:31;;;;;;;6.35;2.42;;;;;;;;;;4214542;28;20401;-83
2023/09/20 00:04:35;;;;;;;10.35;2.70;;;16.80;99.90;;;;;;4214832;28;20048;-83
2023/09/20 00:06:36;;;;;;;7.47;2.80;;;17.00;99.90;;;;;;4232630;28;20047;-83
2023/09/20 00:08:37;;;;;;;7.68;2.95;;;17.80;99.90;;;;;;4232424;28;20040;-83
2023/09/20 00:10:39;;;;;;;7.18;2.63;;;17.20;99.90;;;;;;4232620;28;20047;-83
2023/09/20 00:12:44;;;;;;;8.05;2.45;;;17.10;99.90;;;;;;4231799;28;20052;-83
2023/09/20 00:14:44;;;;;;;6.93;2.20;;;17.10;99.90;;;;;;4232193;28;20119;-83
2023/09/20 00:16:46;;;;;;;10.57;2.97;;;17.20;99.90;;;;;;4232311;28;20488;-83
2023/09/20 00:18:46;;;;;;;9.80;2.28;;;16.90;99.90;;;;;;4232392;28;20051;-83
2023/09/20 00:20:47;;;;;;;12.18;2.88;;;16.90;99.90;;;;;;4228050;28;20373;-84
2023/09/20 00:22:50;;;;;;;10.10;2.88;;;17.30;99.90;;;;;;4213722;28;20609;-83
2023/09/20 00:24:51;;;;;;;7.00;2.80;;;17.70;99.90;;;;;;4214232;28;20040;-83
2023/09/20 00:26:52;;;;;;;11.77;2.65;;;17.20;99.90;;;;;;4214244;28;20780;-83
2023/09/20 00:28:54;;;;;;;6.30;2.10;;;16.70;99.90;;;;;;4197778;28;20103;-83
2023/09/20 00:30:55;;;;;;;7.60;2.25;;;16.70;99.90;;;;;;4197053;28;20061;-83
2023/09/20 00:32:56;;;;;;;7.22;2.83;;;16.70;99.90;;;;;;4196725;28;20508;-84
2023/09/20 00:34:56;;;;;;;10.15;2.47;;;16.70;99.90;;;;;;4231815;28;20411;-84
2023/09/20 00:36:57;;;;;;;8.68;2.60;;;16.70;99.90;;;;;;4240527;27;20047;-83
2023/09/20 00:38:58;;;;;;;7.45;2.55;;;16.70;99.90;;;;;;4248997;27;20129;-83
2023/09/20 00:41:03;;;;;;;7.80;3.08;;;16.70;99.90;;;;;;4213952;28;20518;-83
2023/09/20 00:43:07;;;;;;;8.05;2.25;;;16.70;99.90;;;;;;4249608;27;20118;-83
2023/09/20 00:45:09;;;;;;;5.85;2.28;;;16.70;99.90;;;;;;4249265;27;20443;-83
2023/09/20 00:47:11;;;;;;;6.20;3.15;;;16.70;99.90;;;;;;4249617;27;20046;-83
2023/09/20 00:49:12;;;;;;;11.02;3.30;;;16.70;99.90;;;;;;4250818;27;20380;-83
2023/09/20 00:51:16;;;;;;;8.40;3.08;;;16.70;99.90;;;;;;4232726;28;20058;-83
2023/09/20 00:53:17;;;;;;;11.88;2.60;;;16.70;99.90;;;;;;4250818;27;20039;-83
2023/09/20 00:55:20;;;;;;;7.55;2.70;;;16.70;99.90;;;;;;4251049;27;20487;-83
2023/09/20 00:57:21;;;;;;;11.88;2.88;;;16.70;99.90;;;;;;4250584;27;20035;-83
2023/09/20 00:59:23;;;;;;;4.53;2.30;;;16.70;99.90;;;;;;4249531;27;20051;-83
2023/09/20 01:01:26;;;;;;;10.25;4.07;;;16.70;99.90;;;;;;4250017;27;20502;-83
2023/09/20 01:03:28;;;;;;;6.60;2.63;;;16.70;99.90;;;;;;4248911;27;20058;-83
2023/09/20 01:05:34;;;;;;;7.50;2.58;;;16.80;99.90;;;;;;4248991;27;20491;-83
2023/09/20 01:07:35;;;;;;;10.77;3.00;;;16.80;99.90;;;;;;4248714;27;20039;-83
2023/09/20 01:09:36;;;;;;;6.10;2.78;;;16.80;99.90;;;;;;4248343;27;20077;-83
2023/09/20 01:11:37;;;;;;;8.07;3.10;;;16.80;99.90;;;;;;4248534;27;20039;-83
2023/09/20 01:13:40;;;;;;;10.88;2.90;;;16.80;99.90;;;;;;4237936;27;20123;-83
2023/09/20 01:15:42;;;;;;;13.98;3.60;;;16.80;99.90;;;;;;4231757;28;20077;-83
2023/09/20 01:17:45;;;;;;;6.65;2.83;;;16.80;99.90;;;;;;4231840;28;20036;-83
2023/09/20 01:19:46;;;;;;;9.43;2.85;;;16.70;99.90;;;;;;4213139;28;20071;-82
2023/09/20 01:21:46;;;;;;;13.90;3.33;;;16.80;99.90;;;;;;4231452;28;20372;-82
2023/09/20 01:23:49;;;;;;;7.70;2.80;;;16.80;99.90;;;;;;4213312;28;20490;-83
2023/09/20 01:25:51;;;;;;;9.10;2.88;;;16.80;99.90;;;;;;4231484;28;20774;-82
2023/09/20 01:27:57;;;;;;;6.00;3.30;;;16.80;99.90;;;;;;4231422;28;20044;-82
2023/09/20 01:29:57;;;;;;;10.10;3.22;;;16.80;99.90;;;;;;4213365;28;20066;-83
2023/09/20 01:32:02;;;;;;;13.93;2.92;;;16.80;99.90;;;;;;4231449;28;20047;-82
2023/09/20 01:34:03;;;;;;;11.48;3.78;;;16.80;99.90;;;;;;4230936;28;20048;-82
2023/09/20 01:36:06;;;;;;;7.50;3.13;;;16.80;99.90;;;;;;4231526;28;20050;-82
2023/09/20 01:38:20;;;;;;;8.60;2.75;;;16.80;99.90;;;;;;4213550;28;20508;-83
2023/09/20 01:40:33;;;;;;;10.13;2.95;;;16.80;99.90;;;;;;4236808;28;20043;-82
2023/09/20 01:43:15;;;;;;;12.57;2.67;;;16.80;99.90;;;;;;4217696;28;20471;-83
2023/09/20 01:45:18;;;;;;;8.45;2.50;;;16.80;99.90;;;;;;4204456;28;20075;-83
2023/09/20 01:48:05;;;;;;;9.43;2.50;;;17.00;99.90;;;;;;4219918;28;20511;-82
2023/09/20 01:50:07;;;;;;;7.70;3.03;;;16.80;99.90;;;;;;4236230;28;20064;-83
2023/09/20 01:52:10;;;;;;;8.60;2.45;;;16.80;99.90;;;;;;4235773;28;20052;-83
2023/09/20 01:54:17;;;;;;;9.85;2.28;;;16.80;99.90;;;;;;4218673;28;20145;-83
2023/09/20 01:56:18;;;;;;;14.80;2.25;;;16.80;99.90;;;;;;4213687;28;20401;-83
2023/09/20 01:58:18;;;;;;;11.77;2.42;;;16.80;99.90;;;;;;4213170;28;20050;-83
2023/09/20 02:00:32;;;;;;;9.57;2.60;;;16.80;99.90;;;;;;4230721;28;20048;-83
2023/09/20 02:02:34;;;;;;;8.63;2.38;;;16.80;99.90;;;;;;4231007;28;20107;-83
2023/09/20 02:04:35;;;;;;;11.18;3.08;;;16.90;99.90;;;;;;4229462;28;20050;-83
2023/09/20 02:06:36;;;;;;;9.05;3.10;;;16.90;99.90;;;;;;4230615;28;20097;-83
2023/09/20 02:08:37;;;;;;;10.10;2.88;;;16.90;99.90;;;;;;4212605;28;20482;-83
2023/09/20 02:10:38;;;;;;;8.90;1.98;;;16.90;99.90;;;;;;4214008;28;20131;-83
2023/09/20 02:12:39;;;;;;;10.27;2.75;;;16.90;99.90;;;;;;4234105;28;20036;-83
2023/09/20 02:14:41;;;;;;;10.02;2.25;;;16.90;99.90;;;;;;4233839;28;20044;-82
2023/09/20 02:16:42;;;;;;;10.98;2.33;;;16.90;99.90;;;;;;4215801;28;20043;-83
2023/09/20 02:18:44;;;;;;;8.93;2.15;;;17.00;99.90;;;;;;4215640;28;20055;-82
2023/09/20 02:20:44;;;;;;;9.20;2.45;;;17.00;99.90;;;;;;4216019;28;20044;-83
2023/09/20 02:22:50;;;;;;;16.70;2.40;;;17.00;99.90;;;;;;4234077;28;20096;-83
2023/09/20 02:24:51;;;;;;;8.82;2.40;;;17.00;99.90;;;;;;4234146;28;20044;-83
2023/09/20 02:26:52;;;;;;;8.93;2.10;;;17.00;99.90;;;;;;4215972;28;20117;-82
2023/09/20 02:28:54;;;;;;;8.35;2.80;;;17.00;99.90;;;;;;4233563;28;20046;-82
2023/09/20 02:30:55;;;;;;;8.35;2.13;;;17.00;99.90;;;;;;4234265;28;20043;-83
2023/09/20 02:32:59;;;;;;;7.07;2.50;;;17.00;99.90;;;;;;4215664;28;20051;-83
2023/09/20 02:35:03;;;;;;;11.07;2.25;;;17.00;99.90;;;;;;4232566;28;20213;-82
2023/09/20 02:37:04;;;;;;;7.65;2.10;;;17.00;99.90;;;;;;4215556;28;20479;-82
2023/09/20 02:39:06;;;;;;;5.82;2.03;;;17.10;99.90;;;;;;4233451;28;20051;-83
2023/09/20 02:41:07;;;;;;;7.93;2.08;;;17.00;99.90;;;;;;4215689;28;20040;-83
2023/09/20 02:43:08;;;;;;;8.23;2.92;;;17.00;99.90;;;;;;4215776;28;20501;-83
2023/09/20 02:45:11;;;;;;;8.57;2.63;;;17.00;99.90;;;;;;4215245;28;20123;-83
2023/09/20 02:47:11;;;;;;;8.05;2.38;;;17.10;99.90;;;;;;4232356;28;20036;-82
2023/09/20 02:49:12;;;;;;;6.47;2.15;;;17.00;99.90;;;;;;4233537;28;20028;-83
2023/09/20 02:51:13;;;;;;;11.50;2.60;;;17.10;99.90;;;;;;4215371;28;20048;-83
2023/09/20 02:53:14;;;;;;;8.82;1.90;;;17.10;99.90;;;;;;4214983;28;20036;-83
2023/09/20 02:55:17;;;;;;;8.32;3.15;;;17.10;99.90;;;;;;4245669;27;20042;-83
2023/09/20 02:57:17;;;;;;;8.02;2.60;;;17.10;99.90;;;;;;4215332;28;20150;-83
2023/09/20 02:59:20;;;;;;;10.38;2.45;;;17.10;99.90;;;;;;4250242;27;20039;-83
2023/09/20 03:01:20;;;;;;;5.97;2.28;;;17.10;99.90;;;;;;4232268;28;20427;-82
2023/09/20 03:03:23;;;;;;;5.93;2.17;;;17.10;99.90;;;;;;4250138;27;20039;-82
2023/09/20 03:05:34;;;;;;;7.65;2.88;;;17.10;99.90;;;;;;4250291;27;20047;-83
2023/09/20 03:07:35;;;;;;;8.32;2.67;;;17.10;99.90;;;;;;4249843;27;20043;-83
2023/09/20 03:09:36;;;;;;;8.38;2.13;;;17.20;99.90;;;;;;4249669;27;20099;-82
2023/09/20 03:11:38;;;;;;;6.93;2.30;;;17.20;99.90;;;;;;4232059;28;20100;-83
2023/09/20 03:13:39;;;;;;;8.02;2.20;;;17.20;99.90;;;;;;4241437;27;20052;-82
2023/09/20 03:15:43;;;;;;;8.52;2.33;;;17.10;99.90;;;;;;4215217;28;20536;-83
2023/09/20 03:17:45;;;;;;;7.70;1.95;;;17.10;99.90;;;;;;4214455;28;20048;-82
2023/09/20 03:19:53;;;;;;;9.98;2.17;;;17.20;99.90;;;;;;4231806;28;20399;-82
2023/09/20 03:21:55;;;;;;;6.75;2.33;;;17.20;99.90;;;;;;4233093;28;20468;-82
2023/09/20 03:23:55;;;;;;;8.73;2.40;;;17.10;99.90;;;;;;4214925;28;20593;-82
2023/09/20 03:25:57;;;;;;;7.45;2.03;;;17.10;99.90;;;;;;4232749;28;20040;-82
2023/09/20 03:27:57;;;;;;;6.43;2.50;;;17.20;99.90;;;;;;4233146;28;20053;-82
2023/09/20 03:30:00;;;;;;;9.13;2.20;;;17.20;99.90;;;;;;4214675;28;20416;-82
2023/09/20 03:32:02;;;;;;;7.28;2.45;;;17.20;99.90;;;;;;4214732;28;20131;-82
2023/09/20 03:34:03;;;;;;;8.07;2.55;;;17.20;99.90;;;;;;4232978;28;20484;-82
2023/09/20 03:36:15;;;;;;;3.28;1.95;;;17.20;99.90;;;;;;4214682;28;20432;-82
2023/09/20 03:38:15;;;;;;;7.55;2.30;;;17.20;99.90;;;;;;4232900;28;20040;-82
2023/09/20 03:40:17;;;;;;;6.00;1.85;;;17.20;99.90;;;;;;4231033;28;20126;-82
2023/09/20 03:42:18;;;;;;;7.97;2.00;;;17.30;99.90;;;;;;4214478;28;20131;-82
2023/09/20 03:44:19;;;;;;;10.05;1.77;;;17.20;99.90;;;;;;4214700;28;20408;-82
2023/09/20 03:46:20;;;;;;;8.85;2.13;;;17.30;99.90;;;;;;4214791;28;20446;-82
2023/09/20 03:48:21;;;;;;;3.83;1.70;;;17.30;99.90;;;;;;4214059;28;20122;-82
2023/09/20 03:50:22;;;;;;;7.35;1.85;;;17.30;99.90;;;;;;4232421;28;20055;-82
2023/09/20 03:52:22;;;;;;;8.52;2.25;;;17.30;99.90;;;;;;4214454;28;20054;-82
2023/09/20 03:54:24;;;;;;;10.23;2.60;;;17.30;99.90;;;;;;4232289;28;20527;-82
2023/09/20 03:56:25;;;;;;;7.65;2.63;;;17.30;99.90;;;;;;4232744;28;20496;-82
2023/09/20 03:58:26;;;;;;;5.97;2.17;;;17.30;99.90;;;;;;4214579;28;20055;-82
2023/09/20 04:00:28;;;;;;;9.85;2.25;;;17.20;99.90;;;;;;4214472;28;20047;-82
2023/09/20 04:02:28;;;;;;;6.35;2.78;;;17.20;99.90;;;;;;4231848;28;20449;-82
2023/09/20 04:04:29;;;;;;;8.05;1.90;;;17.20;99.90;;;;;;4214083;28;20044;-82
2023/09/20 04:06:34;;;;;;;9.77;2.42;;;17.20;99.90;;;;;;4232507;28;20043;-82
2023/09/20 04:08:35;;;;;;;6.78;2.17;;;17.30;99.90;;;;;;4214139;28;20048;-82
2023/09/20 04:10:35;;;;;;;11.18;2.90;;;17.20;99.90;;;;;;4232416;28;20460;-82
2023/09/20 04:12:36;;;;;;;5.18;2.15;;;17.20;99.90;;;;;;4232312;28;20048;-82
2023/09/20 04:14:37;;;;;;;8.32;2.20;;;17.30;99.90;;;;;;4213981;28;20227;-82
2023/09/20 04:16:40;;;;;;;13.27;3.42;;;17.20;99.90;;;;;;4231661;28;20047;-82
2023/09/20 04:18:43;;;;;;;7.80;2.25;;;17.20;99.90;;;;;;4232354;28;20507;-82
2023/09/20 04:20:47;;;;;;;9.38;2.33;;;17.20;99.90;;;;;;4232369;28;20051;-83
2023/09/20 04:22:49;;;;;;;10.85;2.00;;;17.10;99.90;;;;;;4214112;28;20050;-82
2023/09/20 04:24:50;;;;;;;11.07;2.22;;;17.20;99.90;;;;;;4204502;28;20058;-83
2023/09/20 04:26:51;;;;;;;10.52;2.17;;;17.20;99.90;;;;;;4248893;27;20566;-82
2023/09/20 04:28:52;;;;;;;10.00;2.50;;;17.20;99.90;;;;;;4248968;27;20066;-82
2023/09/20 04:30:53;;;;;;;9.93;2.97;;;17.10;99.90;;;;;;4249094;27;20039;-82
2023/09/20 04:32:55;;;;;;;9.30;2.47;;;17.10;99.90;;;;;;4248570;27;20047;-82
2023/09/20 04:34:56;;;;;;;7.25;2.15;;;17.10;99.90;;;;;;4230316;28;20560;-82
2023/09/20 04:36:57;;;;;;;5.93;2.42;;;17.10;99.90;;;;;;4230817;28;20043;-82
2023/09/20 04:38:59;;;;;;;8.05;2.60;;;17.10;99.90;;;;;;4230845;28;20161;-82
2023/09/20 04:40:59;;;;;;;7.85;1.92;;;17.10;99.90;;;;;;4249044;27;20053;-82
2023/09/20 04:43:00;;;;;;;10.20;3.05;;;17.10;99.90;;;;;;4249020;27;20125;-82
2023/09/20 04:45:14;;;;;;;8.90;2.40;;;17.10;99.90;;;;;;4230331;28;20044;-82
2023/09/20 04:47:17;;;;;;;9.32;2.30;;;17.00;99.90;;;;;;4249143;27;20081;-82
2023/09/20 04:49:19;;;;;;;10.45;2.85;;;17.00;99.90;;;;;;4230567;28;20046;-82
2023/09/20 04:51:20;;;;;;;8.02;2.25;;;16.90;99.90;;;;;;4248378;27;20063;-82
2023/09/20 04:53:23;;;;;;;6.57;2.70;;;16.90;99.90;;;;;;4230687;28;20047;-82
2023/09/20 04:55:25;;;;;;;13.02;2.65;;;16.90;99.90;;;;;;4248479;27;20039;-82
2023/09/20 04:57:26;;;;;;;7.05;2.47;;;16.80;99.90;;;;;;4230506;28;20059;-82
2023/09/20 04:59:26;;;;;;;9.80;2.53;;;16.80;99.90;;;;;;4248799;27;20118;-82
2023/09/20 05:01:29;;;;;;;11.63;2.78;;;16.80;99.90;;;;;;4246871;27;20053;-82
2023/09/20 05:03:29;;;;;;;10.48;2.65;;;16.70;99.90;;;;;;4224773;28;20056;-82
2023/09/20 05:05:31;;;;;;;8.77;2.40;;;16.70;99.90;;;;;;4230027;28;20133;-82
2023/09/20 05:07:33;;;;;;;11.00;2.83;;;16.60;99.90;;;;;;4230197;28;20427;-82
2023/09/20 05:09:34;;;;;;;7.35;2.03;;;16.60;99.90;;;;;;4248371;27;20046;-82
2023/09/20 05:11:35;;;;;;;13.57;3.10;;;16.60;99.90;;;;;;4230214;28;20043;-82
2023/09/20 05:13:38;;;;;;;9.63;2.80;;;16.60;99.90;;;;;;4247795;27;20162;-82
2023/09/20 05:15:39;;;;;;;8.48;2.20;;;16.50;99.90;;;;;;4229765;28;20094;-82
2023/09/20 05:17:40;;;;;;;7.85;2.20;;;16.50;99.90;;;;;;4248435;27;20399;-82
2023/09/20 05:19:41;;;;;;;10.15;2.30;;;16.50;99.90;;;;;;4229920;28;20047;-81
2023/09/20 05:21:43;;;;;;;9.05;2.30;;;16.50;99.90;;;;;;4247321;27;20051;-82
2023/09/20 05:23:43;;;;;;;8.82;2.10;;;16.40;99.90;;;;;;4248316;27;20092;-82
2023/09/20 05:25:44;;;;;;;6.88;1.95;;;16.40;99.90;;;;;;4230155;28;20047;-82
2023/09/20 05:27:45;;;;;;;10.27;2.28;;;16.60;99.90;;;;;;4248436;27;20043;-82
2023/09/20 05:29:46;;;;;;;7.97;2.13;;;16.40;99.90;;;;;;4248303;27;20035;-82
2023/09/20 05:31:46;;;;;;;8.85;2.35;;;16.40;99.90;;;;;;4248230;27;20088;-82
2023/09/20 05:33:48;;;;;;;10.43;2.13;;;16.40;99.90;;;;;;4247570;27;20132;-82
2023/09/20 05:35:49;;;;;;;8.82;2.72;;;16.50;99.90;;;;;;4248307;27;20399;-83
2023/09/20 05:37:52;;;;;;;5.25;2.35;;;16.50;99.90;;;;;;4229761;28;20511;-83
2023/09/20 05:39:52;;;;;;;7.35;2.05;;;16.40;99.90;;;;;;4248370;28;20503;-83
2023/09/20 05:44:55;;;;;;;7.18;2.30;;;16.50;99.90;;;;;;4252026;27;20053;-83
2023/09/20 05:46:55;;;;;;;11.88;2.42;;;16.40;99.90;;;;;;4237312;28;20040;-82
2023/09/20 05:48:57;;;;;;;7.05;2.08;;;16.50;99.90;;;;;;4235483;28;20464;-82
2023/09/20 05:50:58;;;;;;;7.65;2.05;;;16.40;99.90;;;;;;4252627;27;20523;-82
2023/09/20 05:53:07;;;;;;;12.07;2.63;;;16.50;99.90;;;;;;4238955;27;20035;-82
2023/09/20 05:55:11;;;;;;;7.40;2.10;;;16.50;99.90;;;;;;4254993;28;20034;-82
2023/09/20 05:57:13;;;;;;;15.23;3.47;;;16.50;99.90;;;;;;4270331;27;20064;-81
2023/09/20 05:59:20;;;;;;;11.98;2.90;;;16.50;99.90;;;;;;4244581;28;20505;-81
2023/09/20 06:01:23;;;;;;;6.45;1.70;;;16.50;99.90;;;;;;4254461;28;20048;-82
2023/09/20 06:03:25;;;;;;;5.05;2.05;;;16.50;99.90;;;;;;4253200;27;20047;-81
2023/09/20 06:05:26;;;;;;;5.90;1.98;;;16.50;99.90;;;;;;4233742;28;20085;-81
2023/09/20 06:07:27;;;;;;;7.45;2.45;;;16.60;99.90;;;;;;4232612;28;20056;-81
2023/09/20 06:09:28;;;;;;;7.00;2.05;;;16.50;99.90;;;;;;4246058;27;20117;-81
2023/09/20 06:11:29;;;;;;;5.57;1.90;;;16.60;99.90;;;;;;4261283;27;20031;-82
2023/09/20 06:13:31;;;;;;;8.40;1.92;;;16.60;99.90;;;;;;4249164;27;20046;-82
2023/09/20 06:15:33;;;;;;;9.15;2.00;;;16.60;99.90;;;;;;4245778;27;20127;-81
2023/09/20 06:17:34;;;;;;;9.70;3.50;;;16.60;99.90;;;;;;4251307;27;20043;-82
2023/09/20 06:19:35;;;;;;;5.57;2.05;;;16.60;99.90;;;;;;4214834;28;20054;-82
2023/09/20 06:21:38;;;;;;;8.70;1.83;;;16.60;99.90;;;;;;4239243;27;20411;-82
2023/09/20 06:23:39;;;;;;;8.88;2.38;;;16.70;99.90;;;;;;4251212;27;20035;-82
2023/09/20 06:25:41;;;;;;;10.55;3.05;;;16.70;99.90;;;;;;4251195;27;20048;-81
2023/09/20 06:27:42;;;;;;;6.30;2.38;;;16.70;99.90;;;;;;4251036;27;20046;-81
2023/09/20 06:29:43;;;;;;;7.63;1.90;;;16.50;99.90;;;;;;4251235;27;20125;-82
2023/09/20 06:31:44;;;;;;;9.13;2.30;;;16.70;99.90;;;;;;4250845;27;20054;-82
2023/09/20 06:33:46;;;;;;;5.07;1.90;;;16.70;99.90;;;;;;4250572;27;20470;-82
2023/09/20 06:35:49;;;;;;;9.32;2.10;;;16.70;99.90;;;;;;4251095;27;20051;-83
2023/09/20 06:37:51;;;;;;;6.03;1.98;;;16.70;99.90;;;;;;4250882;27;20043;-82
2023/09/20 06:39:55;;;;;;;5.55;1.90;;;16.70;99.90;;;;;;4233133;27;20040;-82
2023/09/20 06:41:57;;;;;;;8.27;2.13;;;16.70;99.90;;;;;;4250872;27;20453;-82
2023/09/20 06:43:58;;;;;;;7.43;1.95;;;16.70;99.90;;;;;;4250457;27;20047;-82
2023/09/20 06:46:03;;;;;;;7.15;2.20;;;16.70;99.90;;;;;;4232578;28;20048;-80
2023/09/20 06:48:05;;;;;;;5.53;1.88;;;16.70;99.90;;;;;;4250632;27;20407;-80
2023/09/20 06:50:07;;;;;;;6.75;2.67;;;16.70;99.90;;;;;;4250201;27;20078;-80
2023/09/20 06:52:09;;;;;;;7.72;1.60;;;16.70;99.90;;;;;;4243488;27;20507;-80
2023/09/20 06:54:10;;;;;;;5.32;1.85;;;16.70;99.90;;;;;;4231908;28;20122;-80
2023/09/20 06:56:10;;;;;;;6.35;1.90;;;16.70;99.90;;;;;;4250007;27;20043;-80
2023/09/20 06:58:11;;;;;;;7.22;1.73;;;16.70;99.90;;;;;;4249845;27;20035;-81
2023/09/20 07:00:25;;;;;;;6.38;1.98;;;16.70;99.90;;;;;;4261266;27;20037;-80
2023/09/20 07:02:26;;;;;;;6.15;2.05;;;16.70;99.90;;;;;;4250851;27;20035;-81
2023/09/20 07:04:28;;;;;;;3.75;2.13;;;16.80;99.90;;;;;;4250477;27;20051;-81
2023/09/20 07:06:31;;;;;;;6.25;1.83;;;16.80;99.90;;;;;;4250234;27;20043;-80
2023/09/20 07:08:32;;;;;;;5.25;1.90;;;16.80;99.90;;;;;;4250858;27;20050;-80
2023/09/20 07:10:33;;;;;;;6.90;1.50;;;16.80;99.90;;;;;;4250465;27;20043;-80
2023/09/20 07:12:36;;;;;;;4.72;1.40;;;16.80;99.90;;;;;;4250527;27;20043;-80
2023/09/20 07:14:37;;;;;;;6.32;1.95;;;16.80;99.90;;;;;;4250505;27;20027;-81
2023/09/20 07:16:39;;;;;;;6.22;2.45;;;16.80;99.90;;;;;;4250577;27;20068;-81
2023/09/20 07:18:44;;;;;;;6.07;1.80;;;16.80;99.90;;;;;;4250580;27;20067;-81
2023/09/20 07:20:44;;;;;;;4.60;1.50;;;16.80;99.90;;;;;;4250187;27;20509;-82
2023/09/20 07:22:51;;;;;;;3.53;2.00;;;16.90;99.90;;;;;;4248659;27;20039;-81
2023/09/20 07:24:54;;;;;;;4.13;1.77;;;16.90;99.90;;;;;;4249975;27;20043;-81
2023/09/20 07:26:58;;;;;;;8.38;1.92;;;16.90;99.90;;;;;;4231701;28;20508;-81
2023/09/20 07:28:59;;;;;;;4.60;1.58;;;17.00;99.90;;;;;;4250123;27;20364;-81
2023/09/20 07:31:03;;;;;;;4.63;1.60;;;17.00;99.90;;;;;;4250236;27;20046;-81
2023/09/20 07:33:04;;;;;;;6.22;1.45;;;17.00;99.90;;;;;;4250013;27;20045;-81
2023/09/20 07:35:19;;;;;;;5.10;1.80;;;17.10;99.90;;;;;;4253525;27;20043;-81
2023/09/20 07:37:20;;;;;;;13.82;2.33;;;17.10;99.90;;;;;;4238798;27;20123;-81
2023/09/20 07:39:21;;;;;;;6.78;2.22;;;17.20;99.90;;;;;;4254907;27;20038;-78
2023/09/20 07:41:22;;;;;;;6.38;1.85;;;17.40;99.90;;;;;;4266537;27;20050;-81
2023/09/20 07:43:23;;;;;;;5.35;1.98;;;17.70;99.90;;;;;;4250103;27;20042;-81
2023/09/20 07:45:24;;;;;;;6.53;2.55;;;17.90;99.90;;;;;;4249896;27;20403;-78
2023/09/20 07:47:24;;;;;;;5.60;2.38;;;17.90;99.90;;;;;;4249965;27;20039;-81
2023/09/20 07:49:26;;;;;;;3.13;1.80;;;18.00;99.90;;;;;;4249818;27;20039;-81
2023/09/20 07:51:29;;;;;;;5.65;1.60;;;18.00;99.90;;;;;;4249466;27;20047;-81
2023/09/20 07:53:30;;;;;;;9.10;1.67;;;17.90;99.90;;;;;;4231348;28;20046;-81
2023/09/20 07:55:31;;;;;;;7.50;2.50;;;17.90;99.90;;;;;;4230797;28;20092;-81
2023/09/20 07:57:32;;;;;;;6.47;2.47;;;17.90;99.90;;;;;;4231424;28;20059;-81
2023/09/20 07:59:33;;;;;;;6.85;2.10;;;17.90;99.90;;;;;;4231271;28;20055;-81
2023/09/20 08:01:34;;;;;;;6.10;2.08;;;17.80;99.90;;;;;;4247792;27;20039;-81
2023/09/20 08:03:38;;;;;;;7.03;1.73;;;17.90;99.90;;;;;;4249877;27;20122;-81
2023/09/20 08:05:39;;;;;;;8.35;2.40;;;18.00;99.90;;;;;;4249923;27;20093;-81
2023/09/20 08:07:40;;;;;;;6.30;1.85;;;18.30;99.90;;;;;;4230713;28;20047;-81
2023/09/20 08:09:41;;;;;;;5.93;1.60;;;18.70;99.90;;;;;;4249576;27;20483;-81
2023/09/20 08:11:42;;;;;;;5.93;2.47;;;19.10;99.90;;;;;;4231119;28;20047;-81
2023/09/20 08:13:43;;;;;;;9.93;2.15;;;19.60;99.90;;;;;;4249230;27;20063;-82
2023/09/20 08:15:44;;;;;;;7.85;1.92;;;20.00;99.90;;;;;;4241288;27;20476;-81
2023/09/20 08:20:09;;;;;;;6.45;1.80;;;20.70;99.90;;;;;;4249074;27;20100;-81
2023/09/20 08:22:14;;;;;;;11.00;3.20;;;21.10;99.90;;;;;;4244895;27;20044;-80
2023/09/20 08:59:53;;;;;;;3.90;1.95;;;18.60;99.90;;;;;;4247271;27;20057;-81
2023/09/20 09:01:54;;;;;;;7.82;2.88;;;18.50;99.90;;;;;;4241321;27;20075;-81
2023/09/20 09:03:57;;;;;;;7.53;1.98;;;18.50;99.90;;;;;;4236895;27;20051;-81
2023/09/20 09:06:01;;;;;;;6.97;1.70;;;18.40;99.90;;;;;;4240941;27;20039;-81
2023/09/20 09:08:03;;;;;;;4.45;1.80;;;18.40;99.90;;;;;;4236209;27;20387;-81
2023/09/20 09:10:05;;;;;;;3.50;2.08;;;18.30;99.90;;;;;;4199665;28;20051;-81
2023/09/20 09:12:05;;;;;;;5.78;1.70;;;18.40;99.90;;;;;;4234969;27;20051;-81
2023/09/20 09:14:06;;;;;;;11.23;2.80;;;18.40;99.90;;;;;;4234432;27;20056;-80
2023/09/20 09:16:07;;;;;;;7.30;2.03;;;18.40;99.90;;;;;;4234920;27;20122;-81
2023/09/20 09:18:16;;;;;;;7.85;2.03;;;18.40;99.90;;;;;;4213572;28;20113;-80
2023/09/20 09:20:21;;;;;;;4.20;2.00;;;18.40;99.90;;;;;;4233072;28;20051;-80
2023/09/20 09:22:23;;;;;;;7.03;2.92;;;18.40;99.90;;;;;;4243630;27;20071;-80
2023/09/20 09:24:24;;;;;;;7.40;1.92;;;18.30;99.90;;;;;;4249739;27;20118;-80
2023/09/20 09:26:25;;;;;;;5.95;2.05;;;18.30;99.90;;;;;;4247990;27;20043;-81
2023/09/20 09:28:26;;;;;;;8.02;2.55;;;18.30;99.90;;;;;;4244084;27;20043;-81
2023/09/20 09:30:27;;;;;;;8.38;2.15;;;18.30;99.90;;;;;;4248267;27;20053;-81
2023/09/20 09:32:35;;;;;;;6.15;2.15;;;18.20;99.90;;;;;;4248091;27;20047;-80
2023/09/20 09:34:41;;;;;;;7.50;2.35;;;18.30;99.90;;;;;;4241979;27;20039;-81
2023/09/20 09:36:42;;;;;;;6.68;2.25;;;18.30;99.90;;;;;;4247920;27;20036;-81
2023/09/20 09:38:42;;;;;;;10.07;2.03;;;18.30;99.90;;;;;;4248277;27;20866;-78
2023/09/20 09:40:55;;;;;;;4.53;2.70;;;18.30;99.90;;;;;;4246803;27;20050;-79
2023/09/20 09:43:11;;;;;;;7.88;1.98;;;18.30;99.90;;;;;;4245852;28;20042;-79
2023/09/20 09:45:16;;;;;;;6.20;2.00;;;18.40;99.90;;;;;;4247616;28;20044;-79
2023/09/20 09:47:18;;;;;;;3.63;2.05;;;18.40;99.90;;;;;;4250916;28;20162;-78
2023/09/20 09:49:20;;;;;;;6.88;2.20;;;18.40;99.90;;;;;;4245919;28;20062;-78
2023/09/20 09:51:21;;;;;;;5.47;2.20;;;18.50;99.90;;;;;;4257606;28;20059;-79
2023/09/20 09:53:22;;;;;;;9.68;2.53;;;18.50;99.90;;;;;;4245188;28;20058;-79
2023/09/20 09:55:23;;;;;;;4.90;2.10;;;18.50;99.90;;;;;;4248547;28;20047;-79
2023/09/20 09:57:24;;;;;;;7.60;2.92;;;18.60;99.90;;;;;;4247410;28;20039;-79
2023/09/20 09:59:26;;;;;;;8.55;2.25;;;18.60;99.90;;;;;;4248033;28;20088;-79
2023/09/20 10:01:28;;;;;;;3.92;2.00;;;18.60;99.90;;;;;;4248060;28;20119;-79
2023/09/20 10:03:32;;;;;;;5.57;2.65;;;18.60;99.90;;;;;;4248012;28;20130;-81
2023/09/20 10:05:33;;;;;;;5.38;2.63;;;18.60;99.90;;;;;;4247531;28;20079;-80
2023/09/20 10:07:38;;;;;;;4.60;2.53;;;18.60;99.90;;;;;;4247937;28;20063;-80
2023/09/20 10:09:48;;;;;;;4.47;2.40;;;18.60;99.90;;;;;;4247630;28;20051;-80
2023/09/20 10:11:50;;;;;;;7.28;2.30;;;18.70;99.90;;;;;;4229090;28;20087;-80
2023/09/20 10:13:52;;;;;;;5.28;2.28;;;18.70;99.90;;;;;;4247636;28;20124;-80
2023/09/20 10:15:53;;;;;;;6.13;2.42;;;18.70;99.90;;;;;;4247813;28;20058;-80
2023/09/20 10:17:55;;;;;;;7.60;2.60;;;18.70;99.90;;;;;;4247857;28;20043;-80
2023/09/20 10:19:56;;;;;;;7.90;2.55;;;18.80;99.90;;;;;;4247554;28;20051;-80
2023/09/20 10:22:09;;;;;;;5.25;2.22;;;18.80;99.90;;;;;;4248000;28;20406;-79
2023/09/20 10:24:14;;;;;;;5.25;2.47;;;18.80;99.90;;;;;;4247287;28;20070;-80
2023/09/20 10:26:16;;;;;;;5.57;2.45;;;18.90;99.90;;;;;;4247539;28;20099;-81
2023/09/20 10:28:16;;;;;;;5.22;2.55;;;18.90;99.90;;;;;;4247885;28;20407;-81
2023/09/20 10:30:17;;;;;;;3.55;2.53;;;18.90;99.90;;;;;;4248181;27;20046;-81
2023/09/20 10:32:18;;;;;;;6.57;2.42;;;19.00;99.90;;;;;;4232723;28;20081;-80
2023/09/20 10:34:21;;;;;;;3.53;2.10;;;19.10;99.90;;;;;;4232643;28;20847;-80
2023/09/20 10:36:28;;;;;;;4.78;2.60;;;19.20;99.90;;;;;;4251223;27;20051;-81
2023/09/20 10:38:31;;;;;;;4.88;2.40;;;19.20;99.90;;;;;;4251935;27;20421;-80
2023/09/20 10:40:48;;;;;;;2.20;1.70;;;19.20;99.90;;;;;;4233457;28;20040;-80
2023/09/20 10:42:56;;;;;;;6.97;2.35;;;19.20;99.90;;;;;;4251619;27;20400;-81
2023/09/20 10:45:00;;;;;;;3.30;2.38;;;19.20;99.90;;;;;;4250320;27;20043;-80
2023/09/20 10:47:06;;;;;;;4.70;2.10;;;19.10;99.90;;;;;;4245328;27;20498;-80
2023/09/20 10:49:07;;;;;;;5.85;2.17;;;19.10;99.90;;;;;;4232453;28;20544;-80
2023/09/20 10:51:08;;;;;;;6.28;2.00;;;19.10;99.90;;;;;;4250426;27;20122;-79
2023/09/20 10:53:12;;;;;;;3.45;2.00;;;19.00;99.90;;;;;;4232820;28;20045;-80
2023/09/20 10:55:36;;;;;;;7.72;2.15;;;19.00;99.90;;;;;;4250842;27;20039;-80
2023/09/20 10:57:41;;;;;;;4.40;1.83;;;19.00;99.90;;;;;;4232679;28;20125;-80
2023/09/20 10:59:44;;;;;;;3.53;1.88;;;19.00;99.90;;;;;;4250531;27;20039;-80
2023/09/20 11:02:10;;;;;;;2.67;1.90;;;18.90;99.90;;;;;;4251110;27;20043;-80
2023/09/20 11:04:10;;;;;;;2.78;1.65;;;18.90;99.90;;;;;;4250460;27;20103;-81
2023/09/20 11:06:12;;;;;;;2.60;1.90;;;18.90;99.90;;;;;;4250576;27;20174;-81
2023/09/20 11:08:14;;;;;;;5.55;1.80;;;18.90;99.90;;;;;;4259790;27;20086;-81
2023/09/20 11:10:19;;;;;;;6.72;2.22;;;18.90;99.90;;;;;;4251839;27;20051;-80
2023/09/20 11:12:20;;;;;;;4.10;1.90;;;19.00;99.90;;;;;;4237202;28;20554;-79
2023/09/20 11:14:23;;;;;;;2.50;1.85;;;19.00;99.90;;;;;;4246218;28;20039;-80
2023/09/20 11:16:25;;;;;;;3.22;1.73;;;19.00;99.90;;;;;;4255366;27;20110;-81
2023/09/20 11:18:27;;;;;;;3.90;1.60;;;19.00;99.90;;;;;;4241680;27;20065;-82